sensor_id;sensor_type;location;lat;lon;timestamp;pressure;altitude;pressure_sealevel;temperature;humidity
9538;BME280;4807;48.024;11.726;2023-10-31T00:02:28;93572.88;;;10.33;99.31
9538;BME280;4807;48.024;11.726;2023-10-31T00:05:38;93577.53;;;10.26;98.55
9538;BME280;4807;48.024;11.726;2023-10-31T00:08:47;93577.47;;;10.15;98.46
9538;BME280;4807;48.024;11.726;2023-10-31T00:11:57;93574.94;;;10.08;99.36
9538;BME280;4807;48.024;11.726;2023-10-31T00:15:06;93582.22;;;10.01;98.64
9538;BME280;4807;48.024;11.726;2023-10-31T00:18:14;93575.06;;;10.02;98.78
9538;BME280;4807;48.024;11.726;2023-10-31T00:21:24;93581.06;;;9.97;98.86
9538;BME280;4807;48.024;11.726;2023-10-31T00:24:33;93579.44;;;9.96;97.56
9538;BME280;4807;48.024;11.726;2023-10-31T00:27:42;93576.66;;;9.91;99.20
9538;BME280;4807;48.024;11.726;2023-10-31T00:30:51;93575.84;;;9.90;98.95
9538;BME280;4807;48.024;11.726;2023-10-31T00:33:59;93569.03;;;9.83;99.41
9538;BME280;4807;48.024;11.726;2023-10-31T00:37:10;93568.69;;;9.79;99.18
9538;BME280;4807;48.024;11.726;2023-10-31T00:40:19;93566.00;;;9.68;99.38
9538;BME280;4807;48.024;11.726;2023-10-31T00:43:28;93562.09;;;9.82;99.05
9538;BME280;4807;48.024;11.726;2023-10-31T00:46:36;93559.91;;;9.79;99.42
9538;BME280;4807;48.024;11.726;2023-10-31T00:49:45;93559.31;;;9.77;99.74
9538;BME280;4807;48.024;11.726;2023-10-31T00:52:56;93569.50;;;9.80;99.20
9538;BME280;4807;48.024;11.726;2023-10-31T00:56:05;93577.31;;;9.75;100.00
9538;BME280;4807;48.024;11.726;2023-10-31T00:59:14;93567.41;;;9.82;99.58
9538;BME280;4807;48.024;11.726;2023-10-31T01:02:23;93552.38;;;9.76;100.00
9538;BME280;4807;48.024;11.726;2023-10-31T01:05:31;93547.44;;;9.79;99.93
9538;BME280;4807;48.024;11.726;2023-10-31T01:08:41;93543.69;;;9.69;100.00
9538;BME280;4807;48.024;11.726;2023-10-31T01:11:50;93554.44;;;9.74;99.65
9538;BME280;4807;48.024;11.726;2023-10-31T01:14:59;93558.63;;;9.70;100.00
9538;BME280;4807;48.024;11.726;2023-10-31T01:18:07;93570.63;;;9.61;100.00
9538;BME280;4807;48.024;11.726;2023-10-31T01:21:16;93561.72;;;9.67;99.46
9538;BME280;4807;48.024;11.726;2023-10-31T01:24:28;93562.41;;;9.62;99.02
9538;BME280;4807;48.024;11.726;2023-10-31T01:27:37;93561.16;;;9.65;99.78
9538;BME280;4807;48.024;11.726;2023-10-31T01:30:46;93566.47;;;9.65;99.98
9538;BME280;4807;48.024;11.726;2023-10-31T01:33:54;93571.31;;;9.56;99.25
9538;BME280;4807;48.024;11.726;2023-10-31T01:37:03;93577.28;;;9.51;98.24
9538;BME280;4807;48.024;11.726;2023-10-31T01:40:14;93578.22;;;9.45;98.61
9538;BME280;4807;48.024;11.726;2023-10-31T01:43:33;93583.75;;;9.44;99.29
9538;BME280;4807;48.024;11.726;2023-10-31T01:46:42;93585.00;;;9.41;99.96
9538;BME280;4807;48.024;11.726;2023-10-31T01:49:51;93580.41;;;9.48;99.11
9538;BME280;4807;48.024;11.726;2023-10-31T01:53:00;93596.22;;;9.43;97.86
9538;BME280;4807;48.024;11.726;2023-10-31T01:56:10;93600.69;;;9.31;98.64
9538;BME280;4807;48.024;11.726;2023-10-31T01:59:19;93591.09;;;9.30;98.61
9538;BME280;4807;48.024;11.726;2023-10-31T02:02:28;93587.41;;;9.31;97.94
9538;BME280;4807;48.024;11.726;2023-10-31T02:05:40;93598.19;;;9.18;97.36
9538;BME280;4807;48.024;11.726;2023-10-31T02:08:50;93604.09;;;9.20;98.18
9538;BME280;4807;48.024;11.726;2023-10-31T02:12:01;93603.66;;;9.23;97.67
9538;BME280;4807;48.024;11.726;2023-10-31T02:15:10;93612.75;;;9.15;98.90
9538;BME280;4807;48.024;11.726;2023-10-31T02:18:19;93610.03;;;9.04;99.73
9538;BME280;4807;48.024;11.726;2023-10-31T02:21:28;93621.25;;;9.06;99.76
9538;BME280;4807;48.024;11.726;2023-10-31T02:24:39;93605.59;;;9.16;100.00
9538;BME280;4807;48.024;11.726;2023-10-31T02:27:48;93612.81;;;9.09;99.47
9538;BME280;4807;48.024;11.726;2023-10-31T02:30:57;93609.28;;;9.15;100.00
9538;BME280;4807;48.024;11.726;2023-10-31T02:34:05;93599.47;;;9.15;99.97
9538;BME280;4807;48.024;11.726;2023-10-31T02:37:14;93607.56;;;9.21;98.47
9538;BME280;4807;48.024;11.726;2023-10-31T02:40:24;93624.31;;;9.21;99.05
9538;BME280;4807;48.024;11.726;2023-10-31T02:43:33;93619.97;;;9.08;98.67
9538;BME280;4807;48.024;11.726;2023-10-31T02:46:41;93628.09;;;9.13;99.67
9538;BME280;4807;48.024;11.726;2023-10-31T02:49:50;93627.63;;;9.16;99.35
9538;BME280;4807;48.024;11.726;2023-10-31T02:52:59;93629.94;;;9.13;98.62
9538;BME280;4807;48.024;11.726;2023-10-31T02:56:09;93636.56;;;9.22;99.07
9538;BME280;4807;48.024;11.726;2023-10-31T02:59:18;93651.91;;;9.20;98.62
9538;BME280;4807;48.024;11.726;2023-10-31T03:02:27;93663.47;;;9.26;98.20
9538;BME280;4807;48.024;11.726;2023-10-31T03:05:36;93666.72;;;9.28;98.02
9538;BME280;4807;48.024;11.726;2023-10-31T03:08:44;93668.72;;;9.32;98.20
9538;BME280;4807;48.024;11.726;2023-10-31T03:11:55;93665.91;;;9.27;97.56
9538;BME280;4807;48.024;11.726;2023-10-31T03:15:04;93664.06;;;9.28;97.33
9538;BME280;4807;48.024;11.726;2023-10-31T03:18:13;93662.59;;;9.32;97.80
9538;BME280;4807;48.024;11.726;2023-10-31T03:21:22;93673.88;;;9.27;97.05
9538;BME280;4807;48.024;11.726;2023-10-31T03:24:31;93660.16;;;9.30;97.45
9538;BME280;4807;48.024;11.726;2023-10-31T03:27:41;93649.53;;;9.30;97.49
9538;BME280;4807;48.024;11.726;2023-10-31T03:30:50;93666.81;;;9.21;97.64
9538;BME280;4807;48.024;11.726;2023-10-31T03:33:59;93669.59;;;9.26;97.66
9538;BME280;4807;48.024;11.726;2023-10-31T03:37:08;93663.56;;;9.19;98.45
9538;BME280;4807;48.024;11.726;2023-10-31T03:43:46;93671.72;;;9.17;98.82
9538;BME280;4807;48.024;11.726;2023-10-31T03:46:55;93667.69;;;9.15;98.60
9538;BME280;4807;48.024;11.726;2023-10-31T03:50:04;93661.56;;;9.14;98.28
9538;BME280;4807;48.024;11.726;2023-10-31T03:53:13;93666.06;;;9.14;97.04
9538;BME280;4807;48.024;11.726;2023-10-31T03:56:22;93672.63;;;9.11;97.00
9538;BME280;4807;48.024;11.726;2023-10-31T03:59:33;93681.72;;;9.04;97.14
9538;BME280;4807;48.024;11.726;2023-10-31T04:02:41;93686.72;;;9.12;97.16
9538;BME280;4807;48.024;11.726;2023-10-31T04:05:52;93690.63;;;9.09;96.52
9538;BME280;4807;48.024;11.726;2023-10-31T04:09:01;93692.03;;;9.12;96.92
9538;BME280;4807;48.024;11.726;2023-10-31T04:12:10;93697.22;;;9.07;96.02
9538;BME280;4807;48.024;11.726;2023-10-31T04:15:20;93703.53;;;9.06;96.09
9538;BME280;4807;48.024;11.726;2023-10-31T04:18:29;93703.91;;;9.09;95.03
9538;BME280;4807;48.024;11.726;2023-10-31T04:21:38;93707.16;;;9.11;94.40
9538;BME280;4807;48.024;11.726;2023-10-31T04:24:48;93704.50;;;9.11;95.04
9538;BME280;4807;48.024;11.726;2023-10-31T04:27:57;93708.75;;;8.94;94.70
9538;BME280;4807;48.024;11.726;2023-10-31T04:31:07;93701.78;;;9.00;94.49
9538;BME280;4807;48.024;11.726;2023-10-31T04:34:16;93703.84;;;8.98;94.88
9538;BME280;4807;48.024;11.726;2023-10-31T04:37:25;93701.47;;;8.90;95.22
9538;BME280;4807;48.024;11.726;2023-10-31T04:40:33;93718.28;;;9.02;95.21
9538;BME280;4807;48.024;11.726;2023-10-31T04:43:42;93715.91;;;8.94;94.79
9538;BME280;4807;48.024;11.726;2023-10-31T04:46:53;93707.53;;;8.97;95.03
9538;BME280;4807;48.024;11.726;2023-10-31T04:50:02;93691.94;;;9.00;95.38
9538;BME280;4807;48.024;11.726;2023-10-31T04:53:11;93688.13;;;8.96;94.94
9538;BME280;4807;48.024;11.726;2023-10-31T04:56:20;93695.16;;;8.91;95.49
9538;BME280;4807;48.024;11.726;2023-10-31T04:59:28;93700.22;;;8.92;96.53
9538;BME280;4807;48.024;11.726;2023-10-31T05:02:38;93691.75;;;8.84;95.97
9538;BME280;4807;48.024;11.726;2023-10-31T05:05:47;93710.47;;;8.89;95.78
9538;BME280;4807;48.024;11.726;2023-10-31T05:08:56;93717.53;;;8.95;96.03
9538;BME280;4807;48.024;11.726;2023-10-31T05:12:05;93721.50;;;8.86;96.24
9538;BME280;4807;48.024;11.726;2023-10-31T05:15:15;93728.44;;;8.87;96.28
9538;BME280;4807;48.024;11.726;2023-10-31T05:18:25;93727.03;;;8.84;97.20
9538;BME280;4807;48.024;11.726;2023-10-31T05:21:34;93736.34;;;8.93;96.13
9538;BME280;4807;48.024;11.726;2023-10-31T05:24:43;93740.25;;;8.91;95.97
9538;BME280;4807;48.024;11.726;2023-10-31T05:27:51;93738.81;;;8.70;97.12
9538;BME280;4807;48.024;11.726;2023-10-31T05:31:01;93738.63;;;8.90;96.56
9538;BME280;4807;48.024;11.726;2023-10-31T05:34:12;93741.50;;;8.88;96.18
9538;BME280;4807;48.024;11.726;2023-10-31T05:37:21;93748.50;;;8.83;96.64
9538;BME280;4807;48.024;11.726;2023-10-31T05:40:30;93749.59;;;8.75;97.75
9538;BME280;4807;48.024;11.726;2023-10-31T05:43:42;93757.59;;;8.68;98.17
9538;BME280;4807;48.024;11.726;2023-10-31T05:46:51;93763.63;;;8.82;97.15
9538;BME280;4807;48.024;11.726;2023-10-31T05:50:01;93757.13;;;8.78;97.31
9538;BME280;4807;48.024;11.726;2023-10-31T05:53:10;93762.34;;;8.85;97.17
9538;BME280;4807;48.024;11.726;2023-10-31T05:56:19;93757.03;;;8.85;96.91
9538;BME280;4807;48.024;11.726;2023-10-31T05:59:28;93772.41;;;8.83;97.19
9538;BME280;4807;48.024;11.726;2023-10-31T06:02:36;93774.44;;;8.80;97.04
9538;BME280;4807;48.024;11.726;2023-10-31T06:05:46;93788.16;;;8.77;98.12
9538;BME280;4807;48.024;11.726;2023-10-31T06:08:55;93789.34;;;8.82;98.12
9538;BME280;4807;48.024;11.726;2023-10-31T06:12:05;93795.84;;;8.86;98.34
9538;BME280;4807;48.024;11.726;2023-10-31T06:15:14;93795.69;;;8.80;98.25
9538;BME280;4807;48.024;11.726;2023-10-31T06:18:23;93799.97;;;8.82;99.13
9538;BME280;4807;48.024;11.726;2023-10-31T06:21:33;93793.03;;;8.80;98.56
9538;BME280;4807;48.024;11.726;2023-10-31T06:24:42;93793.78;;;8.88;99.32
9538;BME280;4807;48.024;11.726;2023-10-31T06:27:50;93799.81;;;8.95;98.04
9538;BME280;4807;48.024;11.726;2023-10-31T06:30:59;93807.25;;;8.86;99.13
9538;BME280;4807;48.024;11.726;2023-10-31T06:34:08;93792.59;;;8.84;99.22
9538;BME280;4807;48.024;11.726;2023-10-31T06:37:18;93799.16;;;8.81;98.73
9538;BME280;4807;48.024;11.726;2023-10-31T06:40:27;93814.88;;;8.83;98.41
9538;BME280;4807;48.024;11.726;2023-10-31T06:43:35;93816.25;;;8.85;99.15
9538;BME280;4807;48.024;11.726;2023-10-31T06:46:44;93817.66;;;8.88;98.64
9538;BME280;4807;48.024;11.726;2023-10-31T06:49:53;93820.59;;;8.79;98.92
9538;BME280;4807;48.024;11.726;2023-10-31T06:53:03;93836.41;;;8.68;99.94
9538;BME280;4807;48.024;11.726;2023-10-31T06:56:12;93846.38;;;8.72;99.74
9538;BME280;4807;48.024;11.726;2023-10-31T06:59:21;93843.25;;;8.82;98.74
9538;BME280;4807;48.024;11.726;2023-10-31T07:02:30;93841.66;;;8.74;99.35
9538;BME280;4807;48.024;11.726;2023-10-31T07:05:40;93829.75;;;8.84;99.04
9538;BME280;4807;48.024;11.726;2023-10-31T07:08:50;93835.28;;;8.82;98.14
9538;BME280;4807;48.024;11.726;2023-10-31T07:11:59;93830.50;;;8.91;98.39
9538;BME280;4807;48.024;11.726;2023-10-31T07:15:09;93827.03;;;8.90;97.67
9538;BME280;4807;48.024;11.726;2023-10-31T07:18:18;93833.59;;;8.88;97.53
9538;BME280;4807;48.024;11.726;2023-10-31T07:21:27;93827.75;;;8.79;97.40
9538;BME280;4807;48.024;11.726;2023-10-31T07:24:37;93825.13;;;8.97;97.13
9538;BME280;4807;48.024;11.726;2023-10-31T07:27:46;93835.25;;;9.07;96.58
9538;BME280;4807;48.024;11.726;2023-10-31T07:30:54;93838.28;;;9.10;96.41
9538;BME280;4807;48.024;11.726;2023-10-31T07:34:03;93845.16;;;9.18;95.82
9538;BME280;4807;48.024;11.726;2023-10-31T07:37:12;93853.13;;;9.18;95.53
9538;BME280;4807;48.024;11.726;2023-10-31T07:40:23;93862.50;;;9.21;94.57
9538;BME280;4807;48.024;11.726;2023-10-31T07:43:32;93862.88;;;9.24;94.95
9538;BME280;4807;48.024;11.726;2023-10-31T07:46:45;93866.50;;;9.30;94.01
9538;BME280;4807;48.024;11.726;2023-10-31T07:49:54;93861.50;;;9.40;93.36
9538;BME280;4807;48.024;11.726;2023-10-31T07:53:02;93865.94;;;9.46;92.60
9538;BME280;4807;48.024;11.726;2023-10-31T07:56:17;93865.53;;;9.42;91.91
9538;BME280;4807;48.024;11.726;2023-10-31T07:59:32;93876.19;;;9.61;91.21
9538;BME280;4807;48.024;11.726;2023-10-31T08:02:41;93897.97;;;9.69;89.90
9538;BME280;4807;48.024;11.726;2023-10-31T08:05:50;93902.69;;;9.67;90.17
9538;BME280;4807;48.024;11.726;2023-10-31T08:08:59;93910.06;;;9.65;90.01
9538;BME280;4807;48.024;11.726;2023-10-31T08:12:09;93907.06;;;9.62;89.24
9538;BME280;4807;48.024;11.726;2023-10-31T08:15:18;93898.66;;;9.65;89.74
9538;BME280;4807;48.024;11.726;2023-10-31T08:18:27;93892.72;;;9.63;87.67
9538;BME280;4807;48.024;11.726;2023-10-31T08:21:36;93905.22;;;9.62;88.02
9538;BME280;4807;48.024;11.726;2023-10-31T08:24:45;93928.88;;;9.45;88.50
9538;BME280;4807;48.024;11.726;2023-10-31T08:27:55;93949.56;;;9.62;88.35
9538;BME280;4807;48.024;11.726;2023-10-31T08:31:05;93956.94;;;9.60;87.96
9538;BME280;4807;48.024;11.726;2023-10-31T08:34:15;93970.44;;;9.58;87.69
9538;BME280;4807;48.024;11.726;2023-10-31T08:37:24;93974.78;;;9.52;87.83
9538;BME280;4807;48.024;11.726;2023-10-31T08:40:33;93975.94;;;9.38;88.33
9538;BME280;4807;48.024;11.726;2023-10-31T08:43:44;93970.16;;;9.48;88.46
9538;BME280;4807;48.024;11.726;2023-10-31T08:46:53;93958.69;;;9.47;88.13
9538;BME280;4807;48.024;11.726;2023-10-31T08:50:02;93953.25;;;9.61;88.07
9538;BME280;4807;48.024;11.726;2023-10-31T08:53:11;93947.72;;;9.62;87.29
9538;BME280;4807;48.024;11.726;2023-10-31T08:56:20;93957.75;;;9.60;86.54
9538;BME280;4807;48.024;11.726;2023-10-31T08:59:30;93967.75;;;9.65;87.58
9538;BME280;4807;48.024;11.726;2023-10-31T09:02:41;93963.47;;;9.64;86.79
9538;BME280;4807;48.024;11.726;2023-10-31T09:05:51;93969.81;;;9.63;86.80
9538;BME280;4807;48.024;11.726;2023-10-31T09:08:59;93976.47;;;9.72;86.97
9538;BME280;4807;48.024;11.726;2023-10-31T09:12:08;93971.44;;;9.82;86.95
9538;BME280;4807;48.024;11.726;2023-10-31T09:15:19;93972.25;;;9.82;86.27
9538;BME280;4807;48.024;11.726;2023-10-31T09:18:29;93971.09;;;9.78;86.51
9538;BME280;4807;48.024;11.726;2023-10-31T09:21:37;93980.38;;;9.69;86.54
9538;BME280;4807;48.024;11.726;2023-10-31T09:24:46;93986.34;;;9.83;87.29
9538;BME280;4807;48.024;11.726;2023-10-31T09:27:55;93993.63;;;9.94;86.03
9538;BME280;4807;48.024;11.726;2023-10-31T09:31:05;93991.84;;;9.88;85.93
9538;BME280;4807;48.024;11.726;2023-10-31T09:34:14;94002.78;;;9.98;86.38
9538;BME280;4807;48.024;11.726;2023-10-31T09:37:23;94006.34;;;10.10;85.72
9538;BME280;4807;48.024;11.726;2023-10-31T09:40:31;93999.09;;;9.99;84.84
9538;BME280;4807;48.024;11.726;2023-10-31T09:43:40;93989.78;;;10.08;86.25
9538;BME280;4807;48.024;11.726;2023-10-31T09:46:52;93986.69;;;10.11;85.05
9538;BME280;4807;48.024;11.726;2023-10-31T09:50:01;93987.03;;;10.15;84.84
9538;BME280;4807;48.024;11.726;2023-10-31T09:53:11;93996.06;;;10.14;84.99
9538;BME280;4807;48.024;11.726;2023-10-31T09:56:20;94013.25;;;10.18;84.69
9538;BME280;4807;48.024;11.726;2023-10-31T09:59:29;94030.34;;;10.28;84.46
9538;BME280;4807;48.024;11.726;2023-10-31T10:02:40;94041.25;;;10.39;83.95
9538;BME280;4807;48.024;11.726;2023-10-31T10:05:49;94059.34;;;10.30;84.33
9538;BME280;4807;48.024;11.726;2023-10-31T10:08:58;94058.59;;;10.23;84.46
9538;BME280;4807;48.024;11.726;2023-10-31T10:12:07;94059.53;;;10.10;84.21
9538;BME280;4807;48.024;11.726;2023-10-31T10:15:16;94060.03;;;10.25;84.53
9538;BME280;4807;48.024;11.726;2023-10-31T10:18:27;94068.09;;;10.37;84.50
9538;BME280;4807;48.024;11.726;2023-10-31T10:21:47;94063.44;;;10.32;84.20
9538;BME280;4807;48.024;11.726;2023-10-31T10:24:56;94073.78;;;10.59;83.19
9538;BME280;4807;48.024;11.726;2023-10-31T10:28:05;94067.66;;;10.58;81.07
9538;BME280;4807;48.024;11.726;2023-10-31T10:31:19;94065.28;;;10.68;81.63
9538;BME280;4807;48.024;11.726;2023-10-31T10:34:31;94058.53;;;10.84;81.84
9538;BME280;4807;48.024;11.726;2023-10-31T10:37:40;94056.53;;;10.80;81.16
9538;BME280;4807;48.024;11.726;2023-10-31T10:40:51;94049.22;;;10.93;80.17
9538;BME280;4807;48.024;11.726;2023-10-31T10:44:05;94047.50;;;10.81;80.11
9538;BME280;4807;48.024;11.726;2023-10-31T10:47:14;94056.78;;;10.78;80.51
9538;BME280;4807;48.024;11.726;2023-10-31T10:50:26;94054.78;;;10.74;81.34
9538;BME280;4807;48.024;11.726;2023-10-31T10:53:44;94055.78;;;10.91;81.22
9538;BME280;4807;48.024;11.726;2023-10-31T10:57:03;94059.06;;;10.93;81.21
9538;BME280;4807;48.024;11.726;2023-10-31T11:00:13;94054.97;;;10.90;80.59
9538;BME280;4807;48.024;11.726;2023-10-31T11:03:24;94053.91;;;11.09;80.28
9538;BME280;4807;48.024;11.726;2023-10-31T11:06:37;94045.41;;;11.31;79.99
9538;BME280;4807;48.024;11.726;2023-10-31T11:09:47;94050.75;;;11.31;78.35
9538;BME280;4807;48.024;11.726;2023-10-31T11:12:56;94054.16;;;11.50;79.45
9538;BME280;4807;48.024;11.726;2023-10-31T11:16:09;94048.34;;;11.53;78.71
9538;BME280;4807;48.024;11.726;2023-10-31T11:19:21;94048.34;;;11.41;77.34
9538;BME280;4807;48.024;11.726;2023-10-31T11:22:39;94042.31;;;11.75;78.26
9538;BME280;4807;48.024;11.726;2023-10-31T11:25:50;94044.97;;;11.75;77.34
9538;BME280;4807;48.024;11.726;2023-10-31T11:29:04;94045.84;;;11.69;74.67
9538;BME280;4807;48.024;11.726;2023-10-31T11:32:15;94040.72;;;11.68;77.04
9538;BME280;4807;48.024;11.726;2023-10-31T11:35:23;94035.13;;;11.88;76.31
9538;BME280;4807;48.024;11.726;2023-10-31T11:38:35;94035.81;;;11.95;76.05
9538;BME280;4807;48.024;11.726;2023-10-31T11:41:49;94037.09;;;11.92;74.73
9538;BME280;4807;48.024;11.726;2023-10-31T11:44:58;94038.75;;;11.63;75.23
9538;BME280;4807;48.024;11.726;2023-10-31T11:48:07;94038.56;;;11.76;76.59
9538;BME280;4807;48.024;11.726;2023-10-31T11:51:17;94035.69;;;11.78;75.57
9538;BME280;4807;48.024;11.726;2023-10-31T11:54:27;94034.88;;;11.77;75.27
9538;BME280;4807;48.024;11.726;2023-10-31T11:57:36;94030.72;;;11.93;75.58
9538;BME280;4807;48.024;11.726;2023-10-31T12:00:45;94026.19;;;11.82;75.53
9538;BME280;4807;48.024;11.726;2023-10-31T12:03:55;94027.94;;;12.00;75.13
9538;BME280;4807;48.024;11.726;2023-10-31T12:07:04;94018.78;;;11.96;73.98
9538;BME280;4807;48.024;11.726;2023-10-31T12:10:22;94028.84;;;12.17;74.37
9538;BME280;4807;48.024;11.726;2023-10-31T12:13:32;94020.50;;;12.25;74.31
9538;BME280;4807;48.024;11.726;2023-10-31T12:16:41;94019.91;;;12.35;73.22
9538;BME280;4807;48.024;11.726;2023-10-31T12:19:55;94012.72;;;12.35;74.82
9538;BME280;4807;48.024;11.726;2023-10-31T12:23:04;94009.81;;;12.48;73.38
9538;BME280;4807;48.024;11.726;2023-10-31T12:26:14;94012.25;;;12.38;73.41
9538;BME280;4807;48.024;11.726;2023-10-31T12:29:29;94012.94;;;12.34;74.32
9538;BME280;4807;48.024;11.726;2023-10-31T12:32:39;94017.47;;;12.33;73.72
9538;BME280;4807;48.024;11.726;2023-10-31T12:35:49;94011.69;;;12.24;72.78
9538;BME280;4807;48.024;11.726;2023-10-31T12:38:57;94026.78;;;12.31;72.62
9538;BME280;4807;48.024;11.726;2023-10-31T12:42:08;94027.91;;;12.46;73.87
9538;BME280;4807;48.024;11.726;2023-10-31T12:45:18;94018.50;;;12.55;71.78
9538;BME280;4807;48.024;11.726;2023-10-31T12:48:27;94030.22;;;12.54;71.86
9538;BME280;4807;48.024;11.726;2023-10-31T12:51:35;94022.91;;;12.90;73.17
9538;BME280;4807;48.024;11.726;2023-10-31T12:54:45;94030.91;;;13.02;71.34
9538;BME280;4807;48.024;11.726;2023-10-31T12:57:55;94034.69;;;12.89;71.92
9538;BME280;4807;48.024;11.726;2023-10-31T13:01:11;94042.63;;;12.60;72.94
9538;BME280;4807;48.024;11.726;2023-10-31T13:04:25;94048.06;;;12.66;74.34
9538;BME280;4807;48.024;11.726;2023-10-31T13:07:35;94048.56;;;11.93;77.24
9538;BME280;4807;48.024;11.726;2023-10-31T13:10:45;94057.00;;;11.36;82.11
9538;BME280;4807;48.024;11.726;2023-10-31T13:13:55;94069.81;;;11.16;83.78
9538;BME280;4807;48.024;11.726;2023-10-31T13:17:04;94082.09;;;11.17;84.59
9538;BME280;4807;48.024;11.726;2023-10-31T13:20:15;94075.22;;;11.09;85.72
9538;BME280;4807;48.024;11.726;2023-10-31T13:23:24;94074.31;;;11.16;85.89
9538;BME280;4807;48.024;11.726;2023-10-31T13:26:33;94085.81;;;11.28;85.81
9538;BME280;4807;48.024;11.726;2023-10-31T13:29:43;94092.03;;;11.40;84.78
9538;BME280;4807;48.024;11.726;2023-10-31T13:32:53;94086.81;;;11.45;84.74
9538;BME280;4807;48.024;11.726;2023-10-31T13:36:02;94091.38;;;11.56;84.56
9538;BME280;4807;48.024;11.726;2023-10-31T13:39:11;94102.16;;;11.50;83.61
9538;BME280;4807;48.024;11.726;2023-10-31T13:42:20;94097.75;;;11.55;83.63
9538;BME280;4807;48.024;11.726;2023-10-31T13:45:31;94109.66;;;11.41;84.21
9538;BME280;4807;48.024;11.726;2023-10-31T13:48:40;94112.63;;;11.33;85.13
9538;BME280;4807;48.024;11.726;2023-10-31T13:51:49;94121.66;;;11.32;84.38
9538;BME280;4807;48.024;11.726;2023-10-31T13:54:58;94121.03;;;11.18;84.85
9538;BME280;4807;48.024;11.726;2023-10-31T13:58:06;94123.00;;;11.23;85.57
9538;BME280;4807;48.024;11.726;2023-10-31T14:01:17;94127.59;;;11.16;85.53
9538;BME280;4807;48.024;11.726;2023-10-31T14:04:32;94121.38;;;11.22;84.89
9538;BME280;4807;48.024;11.726;2023-10-31T14:07:41;94134.69;;;11.22;84.66
9538;BME280;4807;48.024;11.726;2023-10-31T14:10:50;94137.97;;;11.05;83.57
9538;BME280;4807;48.024;11.726;2023-10-31T14:13:59;94142.56;;;10.98;84.34
9538;BME280;4807;48.024;11.726;2023-10-31T14:17:12;94148.78;;;10.92;84.19
9538;BME280;4807;48.024;11.726;2023-10-31T14:20:21;94156.59;;;10.87;84.54
9538;BME280;4807;48.024;11.726;2023-10-31T14:23:30;94155.44;;;10.83;85.46
9538;BME280;4807;48.024;11.726;2023-10-31T14:26:39;94151.34;;;10.81;85.92
9538;BME280;4807;48.024;11.726;2023-10-31T14:29:50;94150.69;;;10.67;86.31
9538;BME280;4807;48.024;11.726;2023-10-31T14:33:02;94161.06;;;10.75;86.79
9538;BME280;4807;48.024;11.726;2023-10-31T14:36:10;94162.50;;;10.71;86.42
9538;BME280;4807;48.024;11.726;2023-10-31T14:39:20;94167.91;;;10.64;86.91
9538;BME280;4807;48.024;11.726;2023-10-31T14:42:29;94164.44;;;10.64;87.44
9538;BME280;4807;48.024;11.726;2023-10-31T14:45:37;94162.88;;;10.56;87.67
9538;BME280;4807;48.024;11.726;2023-10-31T14:48:47;94171.66;;;10.57;87.30
9538;BME280;4807;48.024;11.726;2023-10-31T14:51:56;94171.53;;;10.52;86.54
9538;BME280;4807;48.024;11.726;2023-10-31T14:55:06;94166.50;;;10.44;87.82
9538;BME280;4807;48.024;11.726;2023-10-31T14:58:16;94180.16;;;10.47;87.84
9538;BME280;4807;48.024;11.726;2023-10-31T15:01:25;94176.91;;;10.45;86.92
9538;BME280;4807;48.024;11.726;2023-10-31T15:04:35;94180.81;;;10.43;86.70
9538;BME280;4807;48.024;11.726;2023-10-31T15:07:44;94174.69;;;10.42;86.85
9538;BME280;4807;48.024;11.726;2023-10-31T15:11:00;94182.13;;;10.33;87.48
9538;BME280;4807;48.024;11.726;2023-10-31T15:14:09;94178.44;;;10.35;87.94
9538;BME280;4807;48.024;11.726;2023-10-31T15:17:19;94185.66;;;10.27;88.37
9538;BME280;4807;48.024;11.726;2023-10-31T15:20:30;94197.66;;;10.37;87.20
9538;BME280;4807;48.024;11.726;2023-10-31T15:23:47;94202.28;;;10.16;87.54
9538;BME280;4807;48.024;11.726;2023-10-31T15:27:01;94197.94;;;10.28;88.04
9538;BME280;4807;48.024;11.726;2023-10-31T15:30:10;94201.06;;;10.19;88.24
9538;BME280;4807;48.024;11.726;2023-10-31T15:33:27;94203.06;;;10.23;87.88
9538;BME280;4807;48.024;11.726;2023-10-31T15:36:38;94211.75;;;10.12;88.26
9538;BME280;4807;48.024;11.726;2023-10-31T15:39:47;94209.41;;;10.22;87.46
9538;BME280;4807;48.024;11.726;2023-10-31T15:42:56;94207.00;;;10.14;87.43
9538;BME280;4807;48.024;11.726;2023-10-31T15:46:05;94209.00;;;9.94;87.66
9538;BME280;4807;48.024;11.726;2023-10-31T15:49:14;94216.06;;;9.75;88.21
9538;BME280;4807;48.024;11.726;2023-10-31T15:52:25;94217.28;;;9.79;89.21
9538;BME280;4807;48.024;11.726;2023-10-31T15:55:34;94214.72;;;9.60;89.59
9538;BME280;4807;48.024;11.726;2023-10-31T15:58:43;94217.16;;;9.61;89.19
9538;BME280;4807;48.024;11.726;2023-10-31T16:01:51;94236.66;;;9.48;89.28
9538;BME280;4807;48.024;11.726;2023-10-31T16:05:00;94237.31;;;9.37;89.93
9538;BME280;4807;48.024;11.726;2023-10-31T16:08:11;94239.97;;;9.37;89.05
9538;BME280;4807;48.024;11.726;2023-10-31T16:11:20;94247.16;;;9.30;89.62
9538;BME280;4807;48.024;11.726;2023-10-31T16:14:29;94253.13;;;9.12;90.05
9538;BME280;4807;48.024;11.726;2023-10-31T16:17:38;94252.47;;;9.17;90.10
9538;BME280;4807;48.024;11.726;2023-10-31T16:20:50;94254.34;;;9.10;91.08
9538;BME280;4807;48.024;11.726;2023-10-31T16:24:00;94266.00;;;9.09;91.15
9538;BME280;4807;48.024;11.726;2023-10-31T16:27:12;94263.34;;;9.09;91.10
9538;BME280;4807;48.024;11.726;2023-10-31T16:30:21;94272.97;;;8.97;91.43
9538;BME280;4807;48.024;11.726;2023-10-31T16:33:29;94274.38;;;9.06;91.09
9538;BME280;4807;48.024;11.726;2023-10-31T16:36:38;94281.75;;;9.04;91.99
9538;BME280;4807;48.024;11.726;2023-10-31T16:39:53;94289.50;;;9.05;91.49
9538;BME280;4807;48.024;11.726;2023-10-31T16:43:02;94292.78;;;9.07;91.06
9538;BME280;4807;48.024;11.726;2023-10-31T16:46:12;94298.44;;;9.17;90.60
9538;BME280;4807;48.024;11.726;2023-10-31T16:49:20;94305.84;;;8.96;90.84
9538;BME280;4807;48.024;11.726;2023-10-31T16:52:30;94308.72;;;8.88;91.28
9538;BME280;4807;48.024;11.726;2023-10-31T16:55:40;94298.94;;;8.75;91.87
9538;BME280;4807;48.024;11.726;2023-10-31T16:58:49;94305.47;;;8.59;92.36
9538;BME280;4807;48.024;11.726;2023-10-31T17:01:58;94314.03;;;8.55;93.09
9538;BME280;4807;48.024;11.726;2023-10-31T17:05:07;94325.47;;;8.49;92.64
9538;BME280;4807;48.024;11.726;2023-10-31T17:08:16;94329.72;;;8.36;93.18
9538;BME280;4807;48.024;11.726;2023-10-31T17:11:27;94332.59;;;8.48;92.90